Time,TemperatureF,DewpointF,PressureIn,WindDirection,WindDirectionDegrees,WindSpeedMPH,WindSpeedGustMPH,Humidity,HourlyPrecipIn,Conditions,Clouds,dailyrainin,SolarRadiationWatts/m^2,SoftwareType,DateUTC
2013-06-20 00:00:00,50.1,47.9,30.20,NNE,24,0.0,0.0,92,0.00,,---,0.01,0.00,VWS V14.01,2013-06-20 04:00:00,
2013-06-20 00:01:00,50.3,48.1,30.21,NNE,24,0.0,0.0,92,0.00,,---,0.01,0.00,VWS V14.01,2013-06-20 04:01:00,
2013-06-20 00:06:00,50.1,47.9,30.20,NNE,24,0.0,0.0,92,0.00,,---,0.01,0.00,VWS V14.01,2013-06-20 04:06:00,
2013-06-20 00:11:00,50.0,47.8,30.20,NNE,24,0.0,0.0,92,0.00,,---,0.00,0.00,VWS V14.01,2013-06-20 04:11:00,
2013-06-20 00:16:00,50.0,48.1,30.21,NNE,24,0.0,0.0,93,0.00,,---,0.00,0.00,VWS V14.01,2013-06-20 04:16:00,
2013-06-20 00:21:00,49.9,48.0,30.21,NNE,24,0.0,0.0,93,0.00,,---,0.00,0.00,VWS V14.01,2013-06-20 04:21:00,
2013-06-20 00:26:00,49.7,47.5,30.21,NNE,24,0.0,0.0,92,0.00,,---,0.00,0.00,VWS V14.01,2013-06-20 04:26:00,
2013-06-20 00:30:00,49.3,47.4,30.20,NNE,24,0.0,0.0,93,0.00,,---,0.00,0.00,VWS V14.01,2013-06-20 04:30:00,
2013-06-20 00:31:00,49.4,47.5,30.20,NNE,24,0.0,0.0,93,0.00,,---,0.00,0.00,VWS V14.01,2013-06-20 04:31:00,
2013-06-20 00:36:00,49.3,47.4,30.20,NNE,24,0.0,0.0,93,0.00,,---,0.00,0.00,VWS V14.01,2013-06-20 04:36:00,
2013-06-20 00:41:00,49.3,47.4,30.21,NNE,24,0.0,0.0,93,0.00,,---,0.00,0.00,VWS V14.01,2013-06-20 04:41:00,
2013-06-20 00:46:00,49.2,47.3,30.21,NNE,24,0.0,0.0,93,0.00,,---,0.00,0.00,VWS V14.01,2013-06-20 04:46:00,
2013-06-20 00:51:00,49.2,47.5,30.21,NNE,24,0.0,0.0,94,0.00,,---,0.00,0.00,VWS V14.01,2013-06-20 04:51:00,
2013-06-20 00:56:00,49.0,47.3,30.21,NNE,24,0.0,0.0,94,0.00,,---,0.00,0.00,VWS V14.01,2013-06-20 04:56:00,
2013-06-20 01:00:00,48.7,47.0,30.22,NNE,24,0.0,0.0,94,0.00,,---,0.00,0.00,VWS V14.01,2013-06-20 05:00:00,
2013-06-20 01:01:00,48.8,46.9,30.22,NNE,24,0.0,0.0,93,0.00,,---,0.00,0.00,VWS V14.01,2013-06-20 05:01:00,
2013-06-20 01:06:00,48.7,47.0,30.22,NNE,24,0.0,0.0,94,0.00,,---,0.00,0.00,VWS V14.01,2013-06-20 05:06:00,
2013-06-20 01:11:00,48.6,47.0,30.22,NNE,24,0.0,0.0,94,0.00,,---,0.00,0.00,VWS V14.01,2013-06-20 05:11:00,
2013-06-20 01:16:00,48.5,46.9,30.22,NNE,24,0.0,0.0,94,0.00,,---,0.00,0.00,VWS V14.01,2013-06-20 05:16:00,
2013-06-20 01:21:00,48.5,46.9,30.22,NNE,24,0.0,0.0,94,0.00,,---,0.00,0.00,VWS V14.01,2013-06-20 05:21:00,
2013-06-20 01:26:00,48.4,46.8,30.22,NNE,24,0.0,0.0,94,0.00,,---,0.00,0.00,VWS V14.01,2013-06-20 05:26:00,
2013-06-20 01:30:00,48.2,46.6,30.22,NNE,24,0.0,0.0,94,0.00,,---,0.00,0.00,VWS V14.01,2013-06-20 05:30:00,
2013-06-20 01:31:00,48.3,46.7,30.22,NNE,24,0.0,0.0,94,0.00,,---,0.00,0.00,VWS V14.01,2013-06-20 05:31:00,
2013-06-20 01:36:00,48.2,46.6,30.22,NNE,24,0.0,0.0,94,0.00,,---,0.00,0.00,VWS V14.01,2013-06-20 05:36:00,
2013-06-20 01:41:00,48.1,46.5,30.22,NNE,24,0.0,0.0,94,0.00,,---,0.00,0.00,VWS V14.01,2013-06-20 05:41:00,
2013-06-20 01:46:00,47.9,46.3,30.22,NNE,24,0.0,0.0,94,0.00,,---,0.00,0.00,VWS V14.01,2013-06-20 05:46:00,
2013-06-20 01:51:00,48.0,46.6,30.22,NNE,24,0.0,0.0,95,0.00,,---,0.00,0.00,VWS V14.01,2013-06-20 05:51:00,
2013-06-20 01:56:00,48.0,46.6,30.22,NNE,24,0.0,0.0,95,0.00,,---,0.00,0.00,VWS V14.01,2013-06-20 05:56:00,
2013-06-20 02:00:00,47.6,46.0,30.22,NNE,24,0.0,0.0,94,0.00,,---,0.00,0.00,VWS V14.01,2013-06-20 06:00:00,
2013-06-20 02:01:00,47.8,46.2,30.22,NNE,24,0.0,0.0,94,0.00,,---,0.00,0.00,VWS V14.01,2013-06-20 06:01:00,
2013-06-20 02:06:00,47.6,46.0,30.22,NNE,24,0.0,0.0,94,0.00,,---,0.00,0.00,VWS V14.01,2013-06-20 06:06:00,
2013-06-20 02:11:00,47.4,46.0,30.22,NNE,24,0.0,0.0,95,0.00,,---,0.00,0.00,VWS V14.01,2013-06-20 06:11:00,
2013-06-20 02:16:00,47.4,46.0,30.22,NNE,24,0.0,0.0,95,0.00,,---,0.00,0.00,VWS V14.01,2013-06-20 06:16:00,
2013-06-20 02:21:00,47.4,46.0,30.22,NNE,24,0.0,0.0,95,0.00,,---,0.00,0.00,VWS V14.01,2013-06-20 06:21:00,
2013-06-20 02:26:00,47.3,45.9,30.22,NNE,24,0.0,0.0,95,0.00,,---,0.00,0.00,VWS V14.01,2013-06-20 06:26:00,
2013-06-20 02:30:00,46.9,45.5,30.23,NNE,24,0.0,0.0,95,0.00,,---,0.00,0.00,VWS V14.01,2013-06-20 06:30:00,
2013-06-20 02:31:00,47.2,45.8,30.23,NNE,24,0.0,0.0,95,0.00,,---,0.00,0.00,VWS V14.01,2013-06-20 06:31:00,
2013-06-20 02:36:00,47.0,45.7,30.23,NNE,24,0.0,0.0,95,0.00,,---,0.00,0.00,VWS V14.01,2013-06-20 06:36:00,
2013-06-20 02:41:00,46.8,45.5,30.23,NNE,24,0.0,0.0,95,0.00,,---,0.00,0.00,VWS V14.01,2013-06-20 06:41:00,
2013-06-20 02:46:00,46.7,45.3,30.23,NNE,24,0.0,0.0,95,0.00,,---,0.00,0.00,VWS V14.01,2013-06-20 06:46:00,
2013-06-20 02:51:00,46.6,45.2,30.23,NNE,24,0.0,0.0,95,0.00,,---,0.00,0.00,VWS V14.01,2013-06-20 06:51:00,
2013-06-20 02:56:00,46.5,45.2,30.23,NNE,24,0.0,0.0,95,0.00,,---,0.00,0.00,VWS V14.01,2013-06-20 06:56:00,
2013-06-20 03:00:00,46.4,45.0,30.23,NNE,24,0.0,0.0,95,0.00,,---,0.00,0.00,VWS V14.01,2013-06-20 07:00:00,
2013-06-20 03:01:00,46.4,45.0,30.23,NNE,24,0.0,0.0,95,0.00,,---,0.00,0.00,VWS V14.01,2013-06-20 07:01:00,
2013-06-20 03:06:00,46.4,45.0,30.23,NNE,24,0.0,0.0,95,0.00,,---,0.00,0.00,VWS V14.01,2013-06-20 07:06:00,
2013-06-20 03:11:00,46.2,44.8,30.23,NNE,24,0.0,0.0,95,0.00,,---,0.00,0.00,VWS V14.01,2013-06-20 07:11:00,
2013-06-20 03:16:00,46.1,44.8,30.24,NNE,24,0.0,0.0,95,0.00,,---,0.00,0.00,VWS V14.01,2013-06-20 07:16:00,
2013-06-20 03:21:00,46.1,44.8,30.24,NNE,24,0.0,0.0,95,0.00,,---,0.00,0.00,VWS V14.01,2013-06-20 07:21:00,
2013-06-20 03:26:00,46.1,45.0,30.24,NNE,24,0.0,0.0,96,0.00,,---,0.00,0.00,VWS V14.01,2013-06-20 07:26:00,
2013-06-20 03:30:00,46.1,45.0,30.24,NNE,24,0.0,0.0,96,0.00,,---,0.00,0.00,VWS V14.01,2013-06-20 07:30:00,
2013-06-20 03:31:00,46.1,45.0,30.24,NNE,24,0.0,0.0,96,0.00,,---,0.00,0.00,VWS V14.01,2013-06-20 07:31:00,
2013-06-20 03:36:00,46.1,45.0,30.24,NNE,24,0.0,0.0,96,0.00,,---,0.00,0.00,VWS V14.01,2013-06-20 07:36:00,
2013-06-20 03:41:00,46.0,44.9,30.24,NNE,24,0.0,0.0,96,0.00,,---,0.00,0.00,VWS V14.01,2013-06-20 07:41:00,
2013-06-20 03:46:00,45.9,44.8,30.24,NNE,24,0.0,0.0,96,0.00,,---,0.00,0.00,VWS V14.01,2013-06-20 07:46:00,
2013-06-20 03:51:00,45.8,44.5,30.24,NNE,24,0.0,0.0,95,0.00,,---,0.00,0.00,VWS V14.01,2013-06-20 07:51:00,
2013-06-20 03:56:00,45.8,44.7,30.24,NNE,24,0.0,0.0,96,0.00,,---,0.00,0.00,VWS V14.01,2013-06-20 07:56:00,
2013-06-20 04:00:00,45.8,44.7,30.24,NNE,24,0.0,0.0,96,0.00,,---,0.00,0.00,VWS V14.01,2013-06-20 08:00:00,
2013-06-20 04:01:00,45.8,44.7,30.24,NNE,24,0.0,0.0,96,0.00,,---,0.00,0.00,VWS V14.01,2013-06-20 08:01:00,
2013-06-20 04:06:00,45.8,44.7,30.24,NNE,24,0.0,0.0,96,0.00,,---,0.00,0.00,VWS V14.01,2013-06-20 08:06:00,
2013-06-20 04:11:00,45.8,44.7,30.24,NNE,24,0.0,0.0,96,0.00,,---,0.00,0.00,VWS V14.01,2013-06-20 08:11:00,
2013-06-20 04:16:00,45.8,44.7,30.24,NNE,24,0.0,0.0,96,0.00,,---,0.00,0.00,VWS V14.01,2013-06-20 08:16:00,
2013-06-20 04:21:00,45.8,44.7,30.24,NNE,24,0.0,0.0,96,0.00,,---,0.00,0.00,VWS V14.01,2013-06-20 08:21:00,
2013-06-20 04:26:00,45.6,44.5,30.24,NNE,24,0.0,0.0,96,0.00,,---,0.00,0.00,VWS V14.01,2013-06-20 08:26:00,
2013-06-20 04:30:00,45.5,44.4,30.24,NNE,24,0.0,0.0,96,0.00,,---,0.00,0.00,VWS V14.01,2013-06-20 08:30:00,
2013-06-20 04:31:00,45.5,44.4,30.25,NNE,24,0.0,0.0,96,0.00,,---,0.00,0.00,VWS V14.01,2013-06-20 08:31:00,
2013-06-20 04:36:00,45.5,44.4,30.24,NNE,24,0.0,0.0,96,0.00,,---,0.00,0.00,VWS V14.01,2013-06-20 08:36:00,
2013-06-20 04:41:00,45.4,44.3,30.24,NNE,24,0.0,0.0,96,0.00,,---,0.00,0.00,VWS V14.01,2013-06-20 08:41:00,
2013-06-20 04:46:00,45.4,44.3,30.24,NNE,24,0.0,0.0,96,0.00,,---,0.00,0.00,VWS V14.01,2013-06-20 08:46:00,
2013-06-20 04:51:00,45.3,44.2,30.25,NNE,24,0.0,0.0,96,0.00,,---,0.00,0.00,VWS V14.01,2013-06-20 08:51:00,
2013-06-20 04:56:00,45.3,44.2,30.25,NNE,24,0.0,0.0,96,0.00,,---,0.00,0.00,VWS V14.01,2013-06-20 08:56:00,
2013-06-20 05:00:00,45.2,44.1,30.25,NNE,24,0.0,0.0,96,0.00,,---,0.00,0.00,VWS V14.01,2013-06-20 09:00:00,
2013-06-20 05:01:00,45.3,44.2,30.25,NNE,24,0.0,0.0,96,0.00,,---,0.00,0.00,VWS V14.01,2013-06-20 09:01:00,
2013-06-20 05:06:00,45.2,44.1,30.25,NNE,24,0.0,0.0,96,0.00,,---,0.00,0.00,VWS V14.01,2013-06-20 09:06:00,
2013-06-20 05:10:00,45.2,44.1,30.26,NNE,24,0.0,0.0,96,0.00,,---,0.00,0.00,VWS V14.01,2013-06-20 09:10:00,
2013-06-20 05:15:00,45.4,44.3,30.26,NNE,24,1.0,1.0,96,0.00,,---,0.00,0.00,VWS V14.01,2013-06-20 09:15:00,
2013-06-20 05:20:00,45.8,45.0,30.26,NNE,24,0.0,1.0,97,0.00,,---,0.00,5.00,VWS V14.01,2013-06-20 09:20:00,
2013-06-20 05:25:00,46.1,45.3,30.26,NNE,24,0.0,1.0,97,0.00,,---,0.00,5.00,VWS V14.01,2013-06-20 09:25:00,
2013-06-20 05:30:00,46.5,45.7,30.26,NNE,24,0.0,1.0,97,0.00,,---,0.00,9.00,VWS V14.01,2013-06-20 09:30:00,
2013-06-20 05:35:00,46.7,45.9,30.26,NNE,24,0.0,1.0,97,0.00,,---,0.00,12.00,VWS V14.01,2013-06-20 09:35:00,
2013-06-20 05:40:00,46.8,46.0,30.26,NNE,24,0.0,0.0,97,0.00,,---,0.00,14.00,VWS V14.01,2013-06-20 09:40:00,
2013-06-20 05:45:00,46.8,46.0,30.26,NNE,24,0.0,0.0,97,0.00,,---,0.00,18.00,VWS V14.01,2013-06-20 09:45:00,
2013-06-20 05:50:00,46.9,45.8,30.26,NNE,24,0.0,0.0,96,0.00,,---,0.00,19.00,VWS V14.01,2013-06-20 09:50:00,
2013-06-20 05:55:00,46.8,45.7,30.26,NNE,24,0.0,0.0,96,0.00,,---,0.00,21.00,VWS V14.01,2013-06-20 09:55:00,
2013-06-20 06:00:00,46.8,45.7,30.26,NNE,24,0.0,0.0,96,0.00,,---,0.00,23.00,VWS V14.01,2013-06-20 10:00:00,
2013-06-20 06:05:00,46.8,45.7,30.27,NNE,24,0.0,0.0,96,0.00,,---,0.00,25.00,VWS V14.01,2013-06-20 10:05:00,
2013-06-20 06:10:00,46.9,45.8,30.27,NNE,24,0.0,0.0,96,0.00,,---,0.00,32.00,VWS V14.01,2013-06-20 10:10:00,
2013-06-20 06:15:00,47.2,46.4,30.27,NNE,24,0.0,0.0,97,0.00,,---,0.00,70.00,VWS V14.01,2013-06-20 10:15:00,
2013-06-20 06:20:00,47.5,46.7,30.28,NNE,24,0.0,0.0,97,0.00,,---,0.00,86.00,VWS V14.01,2013-06-20 10:20:00,
2013-06-20 06:25:00,48.1,47.3,30.28,NNE,24,0.0,0.0,97,0.00,,---,0.00,100.00,VWS V14.01,2013-06-20 10:25:00,
2013-06-20 06:30:00,48.7,47.9,30.28,NNE,24,0.0,0.0,97,0.00,,---,0.00,114.00,VWS V14.01,2013-06-20 10:30:00,
2013-06-20 06:35:00,49.2,48.4,30.28,NNE,24,0.0,0.0,97,0.00,,---,0.00,128.00,VWS V14.01,2013-06-20 10:35:00,
2013-06-20 06:40:00,49.8,48.7,30.28,NNE,24,0.0,0.0,96,0.00,,---,0.00,141.00,VWS V14.01,2013-06-20 10:40:00,
2013-06-20 06:45:00,50.4,49.0,30.28,NNE,24,0.0,0.0,95,0.00,,---,0.00,156.00,VWS V14.01,2013-06-20 10:45:00,
2013-06-20 06:50:00,51.0,49.3,30.28,NNE,24,0.0,0.0,94,0.00,,---,0.00,172.00,VWS V14.01,2013-06-20 10:50:00,
2013-06-20 06:55:00,51.5,49.5,30.28,NNE,24,0.0,1.0,93,0.00,,---,0.00,190.00,VWS V14.01,2013-06-20 10:55:00,
2013-06-20 07:00:00,52.0,49.5,30.28,NNE,28,0.0,1.0,91,0.00,,---,0.00,206.00,VWS V14.01,2013-06-20 11:00:00,
2013-06-20 07:05:00,52.9,50.0,30.28,NNE,28,0.0,1.0,90,0.00,,---,0.00,221.00,VWS V14.01,2013-06-20 11:05:00,
2013-06-20 07:10:00,53.6,50.4,30.28,NNE,28,0.0,0.0,89,0.00,,---,0.00,239.00,VWS V14.01,2013-06-20 11:10:00,
2013-06-20 07:15:00,54.2,50.7,30.28,NNE,28,0.0,0.0,88,0.00,,---,0.00,264.00,VWS V14.01,2013-06-20 11:15:00,
2013-06-20 07:20:00,54.8,51.0,30.29,NNE,28,0.0,0.0,87,0.00,,---,0.00,281.00,VWS V14.01,2013-06-20 11:20:00,
2013-06-20 07:25:00,55.6,51.5,30.29,NNE,28,0.0,0.0,86,0.00,,---,0.00,297.00,VWS V14.01,2013-06-20 11:25:00,
2013-06-20 07:30:00,56.4,52.6,30.29,NNE,28,0.0,0.0,87,0.00,,---,0.00,315.00,VWS V14.01,2013-06-20 11:30:00,
2013-06-20 07:35:00,57.1,52.0,30.29,NNE,28,0.0,0.0,83,0.00,,---,0.00,330.00,VWS V14.01,2013-06-20 11:35:00,
2013-06-20 07:40:00,57.9,52.1,30.29,NNE,28,0.0,0.0,81,0.00,,---,0.00,343.00,VWS V14.01,2013-06-20 11:40:00,
2013-06-20 07:45:00,58.6,52.1,30.29,NNE,28,0.0,0.0,79,0.00,,---,0.00,359.00,VWS V14.01,2013-06-20 11:45:00,
2013-06-20 07:50:00,59.1,52.6,30.29,NNE,28,0.0,0.0,79,0.00,,---,0.00,374.00,VWS V14.01,2013-06-20 11:50:00,
2013-06-20 07:55:00,59.5,53.0,30.29,NNE,28,0.0,2.0,79,0.00,,---,0.00,390.00,VWS V14.01,2013-06-20 11:55:00,
2013-06-20 08:00:00,59.9,53.0,30.29,NNE,28,0.0,2.0,78,0.00,,---,0.00,406.00,VWS V14.01,2013-06-20 12:00:00,
2013-06-20 08:05:00,60.4,53.5,30.29,NNE,28,0.0,2.0,78,0.00,,---,0.00,420.00,VWS V14.01,2013-06-20 12:05:00,
2013-06-20 08:10:00,61.1,53.8,30.29,NNE,28,0.0,0.0,77,0.00,,---,0.00,436.00,VWS V14.01,2013-06-20 12:10:00,
2013-06-20 08:15:00,62.0,54.0,30.29,SSE,161,0.0,3.0,75,0.00,,---,0.00,450.00,VWS V14.01,2013-06-20 12:15:00,
2013-06-20 08:20:00,62.2,54.2,30.29,SSE,161,0.0,3.0,75,0.00,,---,0.00,466.00,VWS V14.01,2013-06-20 12:20:00,
2013-06-20 08:25:00,62.5,54.1,30.29,NNE,20,0.0,3.0,74,0.00,,---,0.00,478.00,VWS V14.01,2013-06-20 12:25:00,
2013-06-20 08:30:00,62.7,54.3,30.29,ESE,103,0.0,3.0,74,0.00,,---,0.00,496.00,VWS V14.01,2013-06-20 12:30:00,
2013-06-20 08:35:00,62.8,54.8,30.29,ESE,103,0.0,3.0,75,0.00,,---,0.00,512.00,VWS V14.01,2013-06-20 12:35:00,
2013-06-20 08:40:00,63.2,54.8,30.29,ESE,103,0.0,3.0,74,0.00,,---,0.00,527.00,VWS V14.01,2013-06-20 12:40:00,
2013-06-20 08:45:00,63.6,54.8,30.29,ESE,103,0.0,3.0,73,0.00,,---,0.00,543.00,VWS V14.01,2013-06-20 12:45:00,
2013-06-20 08:50:00,63.9,54.3,30.29,ESE,103,0.0,3.0,71,0.00,,---,0.00,555.00,VWS V14.01,2013-06-20 12:50:00,
2013-06-20 08:55:00,64.5,55.3,30.29,ESE,103,0.0,3.0,72,0.00,,---,0.00,571.00,VWS V14.01,2013-06-20 12:55:00,
2013-06-20 09:00:00,65.0,54.6,30.29,ESE,103,0.0,3.0,69,0.00,,---,0.00,585.00,VWS V14.01,2013-06-20 13:00:00,
2013-06-20 09:05:00,65.4,53.8,30.28,ESE,103,0.0,3.0,66,0.00,,---,0.00,601.00,VWS V14.01,2013-06-20 13:05:00,
2013-06-20 09:10:00,65.8,54.5,30.28,SE,124,0.0,4.0,67,0.00,,---,0.00,613.00,VWS V14.01,2013-06-20 13:10:00,
2013-06-20 09:15:00,66.4,54.3,30.29,SE,124,0.0,4.0,65,0.00,,---,0.00,629.00,VWS V14.01,2013-06-20 13:15:00,
2013-06-20 09:20:00,66.6,54.5,30.28,ENE,59,1.0,4.0,65,0.00,,---,0.00,642.00,VWS V14.01,2013-06-20 13:20:00,
2013-06-20 09:25:00,66.8,53.8,30.28,SE,128,0.0,4.0,63,0.00,,---,0.00,652.00,VWS V14.01,2013-06-20 13:25:00,
2013-06-20 09:30:00,67.1,55.0,30.28,SE,128,0.0,4.0,65,0.00,,---,0.00,666.00,VWS V14.01,2013-06-20 13:30:00,
2013-06-20 09:35:00,67.4,55.2,30.28,SE,128,0.0,4.0,65,0.00,,---,0.00,680.00,VWS V14.01,2013-06-20 13:35:00,
2013-06-20 09:40:00,67.9,53.5,30.28,East,82,0.0,0.0,60,0.00,,---,0.00,693.00,VWS V14.01,2013-06-20 13:40:00,
2013-06-20 09:45:00,68.2,53.3,30.28,East,82,0.0,2.0,59,0.00,,---,0.00,707.00,VWS V14.01,2013-06-20 13:45:00,
2013-06-20 09:50:00,68.5,51.7,30.28,East,82,0.0,2.0,55,0.00,,---,0.00,717.00,VWS V14.01,2013-06-20 13:50:00,
2013-06-20 09:55:00,68.9,55.4,30.28,East,82,0.0,2.0,62,0.00,,---,0.00,729.00,VWS V14.01,2013-06-20 13:55:00,
2013-06-20 10:00:00,69.5,54.1,30.27,East,87,3.0,5.0,58,0.00,,---,0.00,738.00,VWS V14.01,2013-06-20 14:00:00,
2013-06-20 10:05:00,69.7,53.8,30.28,East,101,0.0,5.0,57,0.00,,---,0.00,751.00,VWS V14.01,2013-06-20 14:05:00,
2013-06-20 10:10:00,70.1,54.7,30.28,East,101,0.0,1.0,58,0.00,,---,0.00,758.00,VWS V14.01,2013-06-20 14:10:00,
2013-06-20 10:15:00,70.1,55.6,30.27,East,101,0.0,1.0,60,0.00,,---,0.00,772.00,VWS V14.01,2013-06-20 14:15:00,
2013-06-20 10:20:00,70.3,54.8,30.28,ESE,119,0.0,5.0,58,0.00,,---,0.00,780.00,VWS V14.01,2013-06-20 14:20:00,
2013-06-20 10:25:00,70.4,54.5,30.28,ESE,123,0.0,5.0,57,0.00,,---,0.00,791.00,VWS V14.01,2013-06-20 14:25:00,
2013-06-20 10:30:00,70.5,54.5,30.28,East,88,0.0,5.0,57,0.00,,---,0.00,798.00,VWS V14.01,2013-06-20 14:30:00,
2013-06-20 10:35:00,70.9,54.0,30.28,ENE,61,0.0,5.0,55,0.00,,---,0.00,807.00,VWS V14.01,2013-06-20 14:35:00,
2013-06-20 10:40:00,71.0,55.0,30.28,ENE,61,0.0,2.0,57,0.00,,---,0.00,814.00,VWS V14.01,2013-06-20 14:40:00,
2013-06-20 10:45:00,71.5,56.0,30.28,ENE,61,0.0,2.0,58,0.00,,---,0.00,824.00,VWS V14.01,2013-06-20 14:45:00,
2013-06-20 10:50:00,71.8,56.7,30.28,West,277,0.0,6.0,59,0.00,,---,0.00,833.00,VWS V14.01,2013-06-20 14:50:00,
2013-06-20 10:55:00,71.6,55.6,30.28,WNW,288,0.0,6.0,57,0.00,,---,0.00,844.00,VWS V14.01,2013-06-20 14:55:00,
2013-06-20 11:00:00,71.5,53.5,30.28,WSW,252,2.0,6.0,53,0.00,,---,0.00,849.00,VWS V14.01,2013-06-20 15:00:00,
2013-06-20 11:05:00,71.1,52.6,30.28,West,260,0.0,7.0,52,0.00,,---,0.00,860.00,VWS V14.01,2013-06-20 15:05:00,
2013-06-20 11:10:00,71.4,54.9,30.28,NNW,327,3.0,3.0,56,0.00,,---,0.00,865.00,VWS V14.01,2013-06-20 15:10:00,
2013-06-20 11:15:00,71.7,53.7,30.28,WNW,288,0.0,5.0,53,0.00,,---,0.00,868.00,VWS V14.01,2013-06-20 15:15:00,
2013-06-20 11:20:00,71.9,54.4,30.28,West,269,3.0,5.0,54,0.00,,---,0.00,877.00,VWS V14.01,2013-06-20 15:20:00,
2013-06-20 11:25:00,71.9,53.9,30.28,West,274,0.0,5.0,53,0.00,,---,0.00,884.00,VWS V14.01,2013-06-20 15:25:00,
2013-06-20 11:30:00,72.3,53.7,30.28,West,271,0.0,8.0,52,0.00,,---,0.00,891.00,VWS V14.01,2013-06-20 15:30:00,
2013-06-20 11:35:00,72.3,51.5,30.28,West,259,0.0,8.0,48,0.00,,---,0.00,896.00,VWS V14.01,2013-06-20 15:35:00,
2013-06-20 11:40:00,72.2,52.0,30.28,WNW,285,0.0,5.0,49,0.00,,---,0.00,900.00,VWS V14.01,2013-06-20 15:40:00,
2013-06-20 11:45:00,72.0,52.9,30.28,NNW,327,5.0,6.0,51,0.00,,---,0.00,904.00,VWS V14.01,2013-06-20 15:45:00,
2013-06-20 11:50:00,72.4,55.8,30.28,NW,325,0.0,6.0,56,0.00,,---,0.00,911.00,VWS V14.01,2013-06-20 15:50:00,
2013-06-20 11:55:00,73.1,55.5,30.28,WSW,248,2.0,6.0,54,0.00,,---,0.00,911.00,VWS V14.01,2013-06-20 15:55:00,
2013-06-20 12:00:00,73.0,52.2,30.28,WSW,248,0.0,6.0,48,0.00,,---,0.00,916.00,VWS V14.01,2013-06-20 16:00:00,
2013-06-20 12:05:00,72.6,54.0,30.28,WNW,300,0.0,6.0,52,0.00,,---,0.00,921.00,VWS V14.01,2013-06-20 16:05:00,
2013-06-20 12:10:00,73.2,54.0,30.28,WNW,300,0.0,3.0,51,0.00,,---,0.00,925.00,VWS V14.01,2013-06-20 16:10:00,
2013-06-20 12:15:00,73.7,56.0,30.28,East,90,5.0,5.0,54,0.00,,---,0.00,907.00,VWS V14.01,2013-06-20 16:15:00,
2013-06-20 12:20:00,74.1,57.4,30.28,ESE,105,0.0,5.0,56,0.00,,---,0.00,963.00,VWS V14.01,2013-06-20 16:20:00,
2013-06-20 12:25:00,74.3,57.1,30.27,East,81,3.0,5.0,55,0.00,,---,0.00,969.00,VWS V14.01,2013-06-20 16:25:00,
2013-06-20 12:30:00,74.1,54.8,30.27,ESE,117,0.0,5.0,51,0.00,,---,0.00,988.00,VWS V14.01,2013-06-20 16:30:00,
2013-06-20 12:35:00,74.0,55.3,30.27,West,263,0.0,5.0,52,0.00,,---,0.00,940.00,VWS V14.01,2013-06-20 16:35:00,
2013-06-20 12:40:00,74.1,57.9,30.27,ESE,115,0.0,5.0,57,0.00,,---,0.00,953.00,VWS V14.01,2013-06-20 16:40:00,
2013-06-20 12:45:00,74.4,56.7,30.27,ESE,115,0.0,5.0,54,0.00,,---,0.00,933.00,VWS V14.01,2013-06-20 16:45:00,
2013-06-20 12:50:00,74.6,59.3,30.27,NE,53,0.0,5.0,59,0.00,,---,0.00,939.00,VWS V14.01,2013-06-20 16:50:00,
2013-06-20 12:55:00,74.9,57.2,30.27,ESE,117,0.0,5.0,54,0.00,,---,0.00,942.00,VWS V14.01,2013-06-20 16:55:00,
2013-06-20 13:00:00,75.1,56.3,30.27,East,86,2.0,5.0,52,0.00,,---,0.00,976.00,VWS V14.01,2013-06-20 17:00:00,
2013-06-20 13:05:00,75.0,55.7,30.27,East,98,0.0,5.0,51,0.00,,---,0.00,939.00,VWS V14.01,2013-06-20 17:05:00,
2013-06-20 13:10:00,75.0,55.7,30.27,WNW,284,0.0,3.0,51,0.00,,---,0.00,942.00,VWS V14.01,2013-06-20 17:10:00,
2013-06-20 13:15:00,75.2,56.9,30.27,SE,130,0.0,3.0,53,0.00,,---,0.00,148.00,VWS V14.01,2013-06-20 17:15:00,
2013-06-20 13:20:00,74.9,56.6,30.26,WSW,252,0.0,3.0,53,0.00,,---,0.00,587.00,VWS V14.01,2013-06-20 17:20:00,
2013-06-20 13:25:00,75.1,56.8,30.26,West,268,6.0,7.0,53,0.00,,---,0.00,935.00,VWS V14.01,2013-06-20 17:25:00,
2013-06-20 13:30:00,75.3,56.5,30.26,WSW,238,0.0,7.0,52,0.00,,---,0.00,937.00,VWS V14.01,2013-06-20 17:30:00,
2013-06-20 13:35:00,75.2,55.3,30.26,South,188,0.0,7.0,50,0.00,,---,0.00,100.00,VWS V14.01,2013-06-20 17:35:00,
2013-06-20 13:48:00,74.7,55.4,30.26,East,86,0.0,2.0,51,0.00,,---,0.00,162.00,VWS V14.01,2013-06-20 17:48:00,
2013-06-20 13:53:00,74.9,56.1,30.25,East,98,0.0,3.0,52,0.00,,---,0.00,923.00,VWS V14.01,2013-06-20 17:53:00,
2013-06-20 13:58:00,75.5,58.7,30.25,NW,314,0.0,3.0,56,0.00,,---,0.00,930.00,VWS V14.01,2013-06-20 17:58:00,
2013-06-20 14:00:00,76.6,61.7,30.25,ENE,74,0.0,3.0,60,0.00,,---,0.00,923.00,VWS V14.01,2013-06-20 18:00:00,
2013-06-20 14:03:00,76.1,57.2,30.25,West,281,0.0,3.0,52,0.00,,---,0.00,923.00,VWS V14.01,2013-06-20 18:03:00,
2013-06-20 14:08:00,76.7,61.8,30.25,ENE,74,0.0,0.0,60,0.00,,---,0.00,935.00,VWS V14.01,2013-06-20 18:08:00,
2013-06-20 14:13:00,77.1,55.3,30.25,NW,318,0.0,4.0,47,0.00,,---,0.00,988.00,VWS V14.01,2013-06-20 18:13:00,
2013-06-20 14:18:00,76.9,56.9,30.25,ENE,71,1.0,5.0,50,0.00,,---,0.00,891.00,VWS V14.01,2013-06-20 18:18:00,
2013-06-20 14:23:00,76.9,56.9,30.25,West,262,0.0,5.0,50,0.00,,---,0.00,1007.00,VWS V14.01,2013-06-20 18:23:00,
2013-06-20 14:28:00,76.9,56.3,30.25,WNW,288,0.0,5.0,49,0.00,,---,0.00,1004.00,VWS V14.01,2013-06-20 18:28:00,
2013-06-20 14:30:00,77.4,59.5,30.25,NW,313,4.0,5.0,54,0.00,,---,0.00,919.00,VWS V14.01,2013-06-20 18:30:00,
2013-06-20 14:33:00,77.2,58.2,30.25,West,273,2.0,5.0,52,0.00,,---,0.00,976.00,VWS V14.01,2013-06-20 18:33:00,
2013-06-20 14:38:00,77.4,57.9,30.25,West,276,3.0,6.0,51,0.00,,---,0.00,918.00,VWS V14.01,2013-06-20 18:38:00,
2013-06-20 14:43:00,77.2,57.7,30.25,West,277,0.0,6.0,51,0.00,,---,0.00,888.00,VWS V14.01,2013-06-20 18:43:00,
2013-06-20 14:48:00,77.4,56.2,30.25,West,281,0.0,6.0,48,0.00,,---,0.00,886.00,VWS V14.01,2013-06-20 18:48:00,
2013-06-20 14:53:00,77.3,56.1,30.24,NW,326,4.0,7.0,48,0.00,,---,0.00,893.00,VWS V14.01,2013-06-20 18:53:00,
2013-06-20 14:58:00,77.3,57.8,30.25,West,278,1.0,7.0,51,0.00,,---,0.00,884.00,VWS V14.01,2013-06-20 18:58:00,
2013-06-20 15:00:00,77.4,57.9,30.24,WNW,287,0.0,7.0,51,0.00,,---,0.00,851.00,VWS V14.01,2013-06-20 19:00:00,
2013-06-20 15:03:00,77.5,55.1,30.24,WNW,287,0.0,7.0,46,0.00,,---,0.00,877.00,VWS V14.01,2013-06-20 19:03:00,
2013-06-20 15:08:00,77.4,56.8,30.24,North,355,0.0,1.0,49,0.00,,---,0.00,851.00,VWS V14.01,2013-06-20 19:08:00,
2013-06-20 15:13:00,77.3,56.7,30.24,WSW,254,3.0,5.0,49,0.00,,---,0.00,949.00,VWS V14.01,2013-06-20 19:13:00,
2013-06-20 15:18:00,77.2,59.8,30.24,ESE,121,0.0,5.0,55,0.00,,---,0.00,935.00,VWS V14.01,2013-06-20 19:18:00,
2013-06-20 15:23:00,77.8,58.8,30.24,ESE,108,0.0,5.0,52,0.00,,---,0.00,898.00,VWS V14.01,2013-06-20 19:23:00,
2013-06-20 15:28:00,78.0,56.2,30.24,WNW,298,0.0,5.0,47,0.00,,---,0.00,796.00,VWS V14.01,2013-06-20 19:28:00,
2013-06-20 15:30:00,77.7,58.7,30.24,ESE,123,0.0,5.0,52,0.00,,---,0.00,914.00,VWS V14.01,2013-06-20 19:30:00,
2013-06-20 15:33:00,77.8,57.1,30.24,ESE,115,1.0,5.0,49,0.00,,---,0.00,872.00,VWS V14.01,2013-06-20 19:33:00,
2013-06-20 15:38:00,77.7,58.7,30.24,ESE,123,0.0,0.0,52,0.00,,---,0.00,904.00,VWS V14.01,2013-06-20 19:38:00,
2013-06-20 15:43:00,78.1,60.6,30.24,South,171,2.0,4.0,55,0.00,,---,0.00,192.00,VWS V14.01,2013-06-20 19:43:00,
2013-06-20 15:48:00,77.3,56.1,30.24,West,267,0.0,4.0,48,0.00,,---,0.00,178.00,VWS V14.01,2013-06-20 19:48:00,
2013-06-20 15:53:00,76.6,57.7,30.24,West,267,0.0,4.0,52,0.00,,---,0.00,227.00,VWS V14.01,2013-06-20 19:53:00,
2013-06-20 15:58:00,76.1,58.3,30.24,West,267,0.0,4.0,54,0.00,,---,0.00,236.00,VWS V14.01,2013-06-20 19:58:00,
2013-06-20 16:00:00,75.7,57.9,30.24,West,267,0.0,4.0,54,0.00,,---,0.00,195.00,VWS V14.01,2013-06-20 20:00:00,
2013-06-20 16:03:00,75.8,58.5,30.24,West,267,1.0,4.0,55,0.00,,---,0.00,172.00,VWS V14.01,2013-06-20 20:03:00,
2013-06-20 16:08:00,75.7,58.4,30.24,West,267,1.0,1.0,55,0.00,,---,0.00,200.00,VWS V14.01,2013-06-20 20:08:00,
2013-06-20 16:13:00,75.3,57.5,30.24,West,267,0.0,2.0,54,0.00,,---,0.00,185.00,VWS V14.01,2013-06-20 20:13:00,
2013-06-20 16:18:00,75.1,56.8,30.23,West,267,0.0,2.0,53,0.00,,---,0.00,371.00,VWS V14.01,2013-06-20 20:18:00,
2013-06-20 16:23:00,75.5,58.7,30.23,SE,129,0.0,3.0,56,0.00,,---,0.00,128.00,VWS V14.01,2013-06-20 20:23:00,
2013-06-20 16:28:00,75.7,58.4,30.23,WNW,296,0.0,4.0,55,0.00,,---,0.00,663.00,VWS V14.01,2013-06-20 20:28:00,
2013-06-20 16:30:00,76.4,60.1,30.23,ESE,113,1.0,4.0,57,0.00,,---,0.00,652.00,VWS V14.01,2013-06-20 20:30:00,
2013-06-20 16:33:00,76.0,58.2,30.23,WNW,296,0.0,4.0,54,0.00,,---,0.00,684.00,VWS V14.01,2013-06-20 20:33:00,
2013-06-20 16:38:00,76.5,57.0,30.23,NW,317,4.0,4.0,51,0.00,,---,0.00,659.00,VWS V14.01,2013-06-20 20:38:00,
2013-06-20 16:43:00,76.6,57.7,30.23,NW,319,2.0,6.0,52,0.00,,---,0.00,146.00,VWS V14.01,2013-06-20 20:43:00,
2013-06-20 16:48:00,76.7,58.3,30.23,NNW,335,0.0,6.0,53,0.00,,---,0.00,633.00,VWS V14.01,2013-06-20 20:48:00,
2013-06-20 16:53:00,76.8,57.3,30.23,West,278,0.0,6.0,51,0.00,,---,0.00,599.00,VWS V14.01,2013-06-20 20:53:00,
2013-06-20 16:58:00,76.9,56.9,30.23,West,279,0.0,6.0,50,0.00,,---,0.00,592.00,VWS V14.01,2013-06-20 20:58:00,
2013-06-20 17:00:00,77.2,57.1,30.23,SE,131,0.0,6.0,50,0.00,,---,0.00,666.00,VWS V14.01,2013-06-20 21:00:00,
2013-06-20 17:03:00,77.0,57.5,30.23,West,279,0.0,6.0,51,0.00,,---,0.00,274.00,VWS V14.01,2013-06-20 21:03:00,
2013-06-20 17:08:00,77.2,57.7,30.23,SE,132,0.0,0.0,51,0.00,,---,0.00,715.00,VWS V14.01,2013-06-20 21:08:00,
2013-06-20 17:13:00,77.3,57.2,30.23,SE,136,0.0,1.0,50,0.00,,---,0.00,483.00,VWS V14.01,2013-06-20 21:13:00,
2013-06-20 17:18:00,77.3,59.4,30.23,WNW,288,0.0,4.0,54,0.00,,---,0.00,308.00,VWS V14.01,2013-06-20 21:18:00,
2013-06-20 17:23:00,76.9,56.9,30.22,West,277,0.0,4.0,50,0.00,,---,0.00,167.00,VWS V14.01,2013-06-20 21:23:00,
2013-06-20 17:28:00,77.1,57.6,30.22,West,277,2.0,4.0,51,0.00,,---,0.00,527.00,VWS V14.01,2013-06-20 21:28:00,
2013-06-20 17:30:00,77.2,56.6,30.22,West,273,0.0,4.0,49,0.00,,---,0.00,445.00,VWS V14.01,2013-06-20 21:30:00,
2013-06-20 17:33:00,77.2,57.7,30.23,West,273,0.0,4.0,51,0.00,,---,0.00,459.00,VWS V14.01,2013-06-20 21:33:00,
2013-06-20 17:38:00,77.2,57.1,30.22,West,273,0.0,1.0,50,0.00,,---,0.00,443.00,VWS V14.01,2013-06-20 21:38:00,
2013-06-20 17:43:00,77.4,57.3,30.22,West,273,0.0,1.0,50,0.00,,---,0.00,411.00,VWS V14.01,2013-06-20 21:43:00,
2013-06-20 17:48:00,77.5,56.9,30.22,West,273,0.0,1.0,49,0.00,,---,0.00,369.00,VWS V14.01,2013-06-20 21:48:00,
2013-06-20 17:53:00,77.5,57.4,30.22,West,273,0.0,1.0,50,0.00,,---,0.00,93.00,VWS V14.01,2013-06-20 21:53:00,
2013-06-20 17:58:00,77.1,55.9,30.22,NW,307,1.0,4.0,48,0.00,,---,0.00,104.00,VWS V14.01,2013-06-20 21:58:00,
2013-06-20 18:00:00,76.9,57.4,30.21,NNW,342,0.0,4.0,51,0.00,,---,0.00,360.00,VWS V14.01,2013-06-20 22:00:00,
2013-06-20 18:03:00,76.9,57.4,30.22,NW,307,0.0,4.0,51,0.00,,---,0.00,362.00,VWS V14.01,2013-06-20 22:03:00,
2013-06-20 18:08:00,77.0,58.0,30.22,NNW,342,0.0,0.0,52,0.00,,---,0.00,346.00,VWS V14.01,2013-06-20 22:08:00,
2013-06-20 18:13:00,76.9,58.5,30.22,ESE,103,0.0,2.0,53,0.00,,---,0.00,264.00,VWS V14.01,2013-06-20 22:13:00,
2013-06-20 18:18:00,76.7,57.8,30.22,North,9,0.0,2.0,52,0.00,,---,0.00,70.00,VWS V14.01,2013-06-20 22:18:00,
2013-06-20 18:23:00,76.4,57.0,30.22,North,9,0.0,2.0,51,0.00,,---,0.00,204.00,VWS V14.01,2013-06-20 22:23:00,
2013-06-20 18:28:00,76.3,56.9,30.22,West,270,2.0,3.0,51,0.00,,---,0.00,146.00,VWS V14.01,2013-06-20 22:28:00,
2013-06-20 18:30:00,75.7,57.4,30.22,West,270,0.0,3.0,53,0.00,,---,0.00,84.00,VWS V14.01,2013-06-20 22:30:00,
2013-06-20 18:33:00,76.0,56.6,30.22,West,270,0.0,3.0,51,0.00,,---,0.00,120.00,VWS V14.01,2013-06-20 22:33:00,
2013-06-20 18:38:00,75.7,58.4,30.22,West,270,0.0,0.0,55,0.00,,---,0.00,77.00,VWS V14.01,2013-06-20 22:38:00,
2013-06-20 18:43:00,75.5,57.2,30.22,West,270,0.0,0.0,53,0.00,,---,0.00,88.00,VWS V14.01,2013-06-20 22:43:00,
2013-06-20 18:48:00,75.3,58.0,30.22,West,270,0.0,0.0,55,0.00,,---,0.00,90.00,VWS V14.01,2013-06-20 22:48:00,
2013-06-20 18:53:00,75.1,57.8,30.22,West,270,0.0,0.0,55,0.00,,---,0.00,76.00,VWS V14.01,2013-06-20 22:53:00,
2013-06-20 18:58:00,74.8,57.1,30.22,West,270,0.0,1.0,54,0.00,,---,0.00,91.00,VWS V14.01,2013-06-20 22:58:00,
2013-06-20 19:00:00,74.4,56.7,30.22,West,270,0.0,1.0,54,0.00,,---,0.00,67.00,VWS V14.01,2013-06-20 23:00:00,
2013-06-20 19:03:00,74.6,57.9,30.22,West,270,0.0,1.0,56,0.00,,---,0.00,90.00,VWS V14.01,2013-06-20 23:03:00,
2013-06-20 19:08:00,74.4,58.7,30.22,West,270,0.0,0.0,58,0.00,,---,0.00,65.00,VWS V14.01,2013-06-20 23:08:00,
2013-06-20 19:13:00,74.1,58.9,30.22,West,270,0.0,0.0,59,0.00,,---,0.00,70.00,VWS V14.01,2013-06-20 23:13:00,
2013-06-20 19:18:00,73.9,58.7,30.23,West,270,0.0,0.0,59,0.00,,---,0.00,65.00,VWS V14.01,2013-06-20 23:18:00,
2013-06-20 19:23:00,73.7,58.5,30.23,West,270,0.0,0.0,59,0.00,,---,0.00,58.00,VWS V14.01,2013-06-20 23:23:00,
2013-06-20 19:28:00,73.4,58.2,30.23,West,270,0.0,0.0,59,0.00,,---,0.00,53.00,VWS V14.01,2013-06-20 23:28:00,
2013-06-20 19:30:00,73.0,58.8,30.23,West,270,0.0,0.0,61,0.00,,---,0.00,42.00,VWS V14.01,2013-06-20 23:30:00,
2013-06-20 19:33:00,73.2,59.4,30.23,West,270,0.0,0.0,62,0.00,,---,0.00,37.00,VWS V14.01,2013-06-20 23:33:00,
2013-06-20 19:38:00,72.9,59.1,30.23,West,270,0.0,0.0,62,0.00,,---,0.00,42.00,VWS V14.01,2013-06-20 23:38:00,
2013-06-20 19:43:00,72.6,58.4,30.23,West,270,0.0,0.0,61,0.00,,---,0.00,35.00,VWS V14.01,2013-06-20 23:43:00,
2013-06-20 19:48:00,72.4,58.2,30.23,West,270,0.0,0.0,61,0.00,,---,0.00,42.00,VWS V14.01,2013-06-20 23:48:00,
2013-06-20 19:53:00,72.2,59.4,30.23,West,270,0.0,0.0,64,0.00,,---,0.00,32.00,VWS V14.01,2013-06-20 23:53:00,
2013-06-20 19:58:00,72.0,60.0,30.22,West,270,0.0,0.0,66,0.00,,---,0.00,26.00,VWS V14.01,2013-06-20 23:58:00,
2013-06-20 20:00:00,71.5,60.0,30.22,West,270,0.0,0.0,67,0.00,,---,0.00,14.00,VWS V14.01,2013-06-21 00:00:00,
2013-06-20 20:03:00,71.7,59.8,30.23,West,270,0.0,0.0,66,0.00,,---,0.00,19.00,VWS V14.01,2013-06-21 00:03:00,
2013-06-20 20:08:00,71.4,59.9,30.22,West,270,0.0,0.0,67,0.00,,---,0.00,12.00,VWS V14.01,2013-06-21 00:08:00,
2013-06-20 20:13:00,70.9,59.8,30.22,West,270,0.0,0.0,68,0.00,,---,0.00,9.00,VWS V14.01,2013-06-21 00:13:00,
2013-06-20 20:18:00,70.6,60.3,30.22,West,270,0.0,0.0,70,0.00,,---,0.00,9.00,VWS V14.01,2013-06-21 00:18:00,
2013-06-20 20:23:00,70.2,60.4,30.22,West,270,0.0,0.0,71,0.00,,---,0.00,5.00,VWS V14.01,2013-06-21 00:23:00,
2013-06-20 20:28:00,69.7,59.9,30.22,West,270,0.0,0.0,71,0.00,,---,0.00,0.00,VWS V14.01,2013-06-21 00:28:00,
2013-06-20 20:30:00,69.0,59.2,30.22,West,270,0.0,0.0,71,0.00,,---,0.00,0.00,VWS V14.01,2013-06-21 00:30:00,
2013-06-20 20:33:00,69.3,59.5,30.22,West,270,0.0,0.0,71,0.00,,---,0.00,0.00,VWS V14.01,2013-06-21 00:33:00,
2013-06-20 20:38:00,68.9,59.5,30.22,West,270,0.0,0.0,72,0.00,,---,0.00,0.00,VWS V14.01,2013-06-21 00:38:00,
2013-06-20 20:43:00,68.5,59.5,30.22,West,270,0.0,0.0,73,0.00,,---,0.00,0.00,VWS V14.01,2013-06-21 00:43:00,
2013-06-20 20:48:00,68.1,59.1,30.23,West,270,0.0,0.0,73,0.00,,---,0.00,0.00,VWS V14.01,2013-06-21 00:48:00,
2013-06-20 20:53:00,67.6,59.0,30.23,West,270,0.0,0.0,74,0.00,,---,0.00,0.00,VWS V14.01,2013-06-21 00:53:00,
2013-06-20 20:58:00,67.1,58.9,30.23,West,270,0.0,0.0,75,0.00,,---,0.00,0.00,VWS V14.01,2013-06-21 00:58:00,
2013-06-20 21:00:00,66.2,58.4,30.23,West,270,0.0,0.0,76,0.00,,---,0.00,0.00,VWS V14.01,2013-06-21 01:00:00,
2013-06-20 21:03:00,66.6,58.4,30.23,West,270,0.0,0.0,75,0.00,,---,0.00,0.00,VWS V14.01,2013-06-21 01:03:00,
2013-06-20 21:08:00,66.1,58.3,30.23,West,270,0.0,0.0,76,0.00,,---,0.00,0.00,VWS V14.01,2013-06-21 01:08:00,
2013-06-20 21:13:00,65.7,58.3,30.23,West,270,0.0,0.0,77,0.00,,---,0.00,0.00,VWS V14.01,2013-06-21 01:13:00,
2013-06-20 21:18:00,65.3,58.3,30.23,West,270,0.0,0.0,78,0.00,,---,0.00,0.00,VWS V14.01,2013-06-21 01:18:00,
2013-06-20 21:23:00,64.9,58.2,30.23,West,270,0.0,0.0,79,0.00,,---,0.00,0.00,VWS V14.01,2013-06-21 01:23:00,
2013-06-20 21:28:00,64.6,58.3,30.24,West,270,0.0,0.0,80,0.00,,---,0.00,0.00,VWS V14.01,2013-06-21 01:28:00,
2013-06-20 21:30:00,63.9,58.0,30.25,West,270,0.0,0.0,81,0.00,,---,0.00,0.00,VWS V14.01,2013-06-21 01:30:00,
2013-06-20 21:33:00,64.1,58.2,30.24,West,270,0.0,0.0,81,0.00,,---,0.00,0.00,VWS V14.01,2013-06-21 01:33:00,
2013-06-20 21:38:00,63.8,57.9,30.25,West,270,0.0,0.0,81,0.00,,---,0.00,0.00,VWS V14.01,2013-06-21 01:38:00,
2013-06-20 21:43:00,63.6,57.7,30.25,West,270,0.0,0.0,81,0.00,,---,0.00,0.00,VWS V14.01,2013-06-21 01:43:00,
2013-06-20 21:48:00,63.4,57.8,30.24,West,270,0.0,0.0,82,0.00,,---,0.00,0.00,VWS V14.01,2013-06-21 01:48:00,
2013-06-20 21:53:00,63.2,58.0,30.24,West,270,0.0,0.0,83,0.00,,---,0.00,0.00,VWS V14.01,2013-06-21 01:53:00,
2013-06-20 21:58:00,63.1,57.9,30.24,West,270,0.0,0.0,83,0.00,,---,0.00,0.00,VWS V14.01,2013-06-21 01:58:00,
2013-06-20 22:00:00,63.2,57.6,30.24,West,270,0.0,0.0,82,0.00,,---,0.00,0.00,VWS V14.01,2013-06-21 02:00:00,
2013-06-20 22:03:00,63.0,57.8,30.24,West,270,0.0,0.0,83,0.00,,---,0.00,0.00,VWS V14.01,2013-06-21 02:03:00,
2013-06-20 22:08:00,63.3,57.7,30.24,West,270,0.0,0.0,82,0.00,,---,0.00,0.00,VWS V14.01,2013-06-21 02:08:00,
2013-06-20 22:13:00,63.5,57.9,30.25,West,270,0.0,0.0,82,0.00,,---,0.00,0.00,VWS V14.01,2013-06-21 02:13:00,
2013-06-20 22:18:00,63.6,58.0,30.25,West,270,0.0,0.0,82,0.00,,---,0.00,0.00,VWS V14.01,2013-06-21 02:18:00,
2013-06-20 22:23:00,63.8,57.9,30.25,West,270,0.0,0.0,81,0.00,,---,0.00,0.00,VWS V14.01,2013-06-21 02:23:00,
2013-06-20 22:28:00,63.8,57.9,30.25,West,270,0.0,0.0,81,0.00,,---,0.00,0.00,VWS V14.01,2013-06-21 02:28:00,
2013-06-20 22:30:00,63.8,57.9,30.25,West,270,0.0,0.0,81,0.00,,---,0.00,0.00,VWS V14.01,2013-06-21 02:30:00,
2013-06-20 22:33:00,63.8,58.2,30.25,West,270,0.0,0.0,82,0.00,,---,0.00,0.00,VWS V14.01,2013-06-21 02:33:00,
2013-06-20 22:38:00,63.9,58.0,30.25,West,270,0.0,0.0,81,0.00,,---,0.00,0.00,VWS V14.01,2013-06-21 02:38:00,
2013-06-20 22:43:00,64.1,58.2,30.25,West,270,0.0,3.0,81,0.00,,---,0.00,0.00,VWS V14.01,2013-06-21 02:43:00,
2013-06-20 22:48:00,64.4,58.1,30.24,West,270,0.0,3.0,80,0.00,,---,0.00,0.00,VWS V14.01,2013-06-21 02:48:00,
2013-06-20 22:53:00,64.5,58.2,30.24,West,270,0.0,3.0,80,0.00,,---,0.00,0.00,VWS V14.01,2013-06-21 02:53:00,
2013-06-20 22:58:00,64.7,58.0,30.25,West,270,0.0,3.0,79,0.00,,---,0.00,0.00,VWS V14.01,2013-06-21 02:58:00,
2013-06-20 23:00:00,64.8,58.1,30.25,WNW,293,0.0,3.0,79,0.00,,---,0.00,0.00,VWS V14.01,2013-06-21 03:00:00,
2013-06-20 23:03:00,64.7,58.0,30.25,WNW,293,0.0,3.0,79,0.00,,---,0.00,0.00,VWS V14.01,2013-06-21 03:03:00,
2013-06-20 23:08:00,64.9,58.2,30.25,WNW,293,0.0,0.0,79,0.00,,---,0.00,0.00,VWS V14.01,2013-06-21 03:08:00,
2013-06-20 23:13:00,64.7,57.7,30.25,WNW,293,0.0,0.0,78,0.00,,---,0.00,0.00,VWS V14.01,2013-06-21 03:13:00,
2013-06-20 23:18:00,63.9,57.3,30.25,WNW,293,0.0,0.0,79,0.00,,---,0.00,0.00,VWS V14.01,2013-06-21 03:18:00,
2013-06-20 23:23:00,62.7,57.5,30.25,WNW,293,0.0,1.0,83,0.00,,---,0.00,0.00,VWS V14.01,2013-06-21 03:23:00,
2013-06-20 23:28:00,61.9,57.0,30.26,WNW,293,0.0,1.0,84,0.00,,---,0.00,0.00,VWS V14.01,2013-06-21 03:28:00,
2013-06-20 23:30:00,61.0,56.8,30.26,WNW,293,0.0,1.0,86,0.00,,---,0.00,0.00,VWS V14.01,2013-06-21 03:30:00,
2013-06-20 23:33:00,61.4,57.2,30.26,WNW,293,0.0,1.0,86,0.00,,---,0.00,0.00,VWS V14.01,2013-06-21 03:33:00,
2013-06-20 23:38:00,60.9,57.0,30.26,WNW,293,0.0,0.0,87,0.00,,---,0.00,0.00,VWS V14.01,2013-06-21 03:38:00,
2013-06-20 23:43:00,60.4,56.8,30.26,WNW,293,0.0,0.0,88,0.00,,---,0.00,0.00,VWS V14.01,2013-06-21 03:43:00,
2013-06-20 23:48:00,59.8,56.2,30.26,WNW,293,0.0,0.0,88,0.00,,---,0.00,0.00,VWS V14.01,2013-06-21 03:48:00,
2013-06-20 23:53:00,59.4,56.2,30.26,WNW,293,0.0,0.0,89,0.00,,---,0.00,0.00,VWS V14.01,2013-06-21 03:53:00,
2013-06-20 23:58:00,59.2,56.3,30.26,WNW,293,0.0,0.0,90,0.00,,---,0.00,0.00,VWS V14.01,2013-06-21 03:58:00,